Time;durP1;ratioP1;P1;durP2;ratioP2;P2;SDS_P1;SDS_P2;PMS_P1;PMS_P2;Temp;Humidity;BMP_temperature;BMP_pressure;BME280_temperature;BME280_humidity;BME280_pressure;Samples;Min_cycle;Max_cycle;Signal;HPM_P1;HPM_P2
2022/10/20 00:02:20;;;;;;;5.42;2.08;;;;;;;17.18;43.30;101560.13;1703541;82;21523;-52
2022/10/20 00:04:47;;;;;;;4.47;2.42;;;;;;;17.19;43.07;101558.36;1688441;82;21517;-53
2022/10/20 00:07:14;;;;;;;3.62;2.33;;;;;;;17.18;42.86;101556.17;1702711;82;21041;-50
2022/10/20 00:09:40;;;;;;;5.35;2.12;;;;;;;17.19;42.88;101561.82;1703592;82;21085;-50
2022/10/20 00:12:07;;;;;;;4.75;2.22;;;;;;;17.18;42.95;101554.86;1708003;82;21065;-52
2022/10/20 00:14:35;;;;;;;4.05;2.00;;;;;;;17.19;43.08;101551.30;1707582;82;21023;-51
2022/10/20 00:17:04;;;;;;;3.10;1.95;;;;;;;17.19;42.94;101546.05;1703685;82;21050;-52
2022/10/20 00:19:32;;;;;;;6.47;2.20;;;;;;;17.19;42.92;101555.25;1699592;82;21074;-51
2022/10/20 00:21:59;;;;;;;4.70;2.17;;;;;;;17.20;42.96;101556.98;1708271;82;21038;-56
2022/10/20 00:24:26;;;;;;;3.05;1.80;;;;;;;17.20;42.77;101551.72;1708520;82;21503;-52
2022/10/20 00:26:53;;;;;;;2.50;1.60;;;;;;;17.21;42.48;101542.06;1706904;82;21097;-51
2022/10/20 00:29:21;;;;;;;3.90;2.22;;;;;;;17.20;42.34;101542.52;1706838;82;21038;-50
2022/10/20 00:31:47;;;;;;;4.78;2.12;;;;;;;17.21;42.32;101548.16;1708205;83;21569;-51
2022/10/20 00:34:14;;;;;;;3.77;1.87;;;;;;;17.21;42.43;101546.01;1708615;82;21038;-50
2022/10/20 00:36:41;;;;;;;3.30;2.05;;;;;;;17.22;42.35;101549.02;1708454;82;21058;-50
2022/10/20 00:39:08;;;;;;;3.95;1.90;;;;;;;17.23;42.24;101543.70;1697039;82;21522;-52
2022/10/20 00:41:34;;;;;;;7.55;2.27;;;;;;;17.24;42.15;101540.17;1707963;82;21050;-50
2022/10/20 00:44:04;;;;;;;1.90;1.62;;;;;;;17.25;42.16;101545.81;1708427;82;21531;-56
2022/10/20 00:46:40;;;;;;;4.58;2.22;;;;;;;17.25;42.15;101543.67;1701773;83;21018;-50
2022/10/20 00:49:19;;;;;;;2.42;1.70;;;;;;;17.25;42.19;101545.81;1700190;82;21070;-54
2022/10/20 00:51:45;;;;;;;5.47;2.00;;;;;;;17.24;42.03;101540.17;1705242;82;21053;-49
2022/10/20 00:54:18;;;;;;;3.15;1.72;;;;;;;17.22;41.80;101540.69;1705787;82;21007;-51
2022/10/20 00:56:47;;;;;;;2.45;1.92;;;;;;;17.20;41.83;101538.57;1706196;82;21506;-50
2022/10/20 00:59:17;;;;;;;2.67;2.10;;;;;;;17.20;41.91;101542.52;1702491;82;21037;-50
2022/10/20 01:01:44;;;;;;;3.87;2.10;;;;;;;17.18;41.89;101545.66;1708137;82;21049;-50
2022/10/20 01:04:10;;;;;;;4.55;2.10;;;;;;;17.16;41.73;101550.12;1703924;83;21514;-50
2022/10/20 01:06:38;;;;;;;4.62;2.27;;;;;;;17.14;41.85;101546.69;1708267;82;21034;-50
2022/10/20 01:09:05;;;;;;;4.05;1.92;;;;;;;17.12;41.81;101548.52;1704878;82;21046;-50
2022/10/20 01:12:03;;;;;;;3.10;1.90;;;;;;;17.09;41.80;101540.72;1704265;82;21019;-50
2022/10/20 01:14:45;;;;;;;4.42;2.67;;;;;;;17.07;42.18;101538.60;1706456;82;21031;-50
2022/10/20 01:17:26;;;;;;;3.22;1.98;;;;;;;17.03;42.05;101551.45;1704576;82;21050;-50
2022/10/20 01:19:59;;;;;;;5.17;2.50;;;;;;;16.99;42.03;101555.11;1696791;82;21007;-51
2022/10/20 01:22:53;;;;;;;4.00;1.92;;;;;;;16.97;42.10;101554.30;1705649;82;21066;-51
2022/10/20 01:25:36;;;;;;;5.90;2.22;;;;;;;16.94;42.28;101567.55;1703266;82;21085;-51
2022/10/20 01:28:17;;;;;;;2.20;1.80;;;;;;;16.92;42.49;101548.34;1698071;82;21038;-52
2022/10/20 01:30:47;;;;;;;5.55;1.55;;;;;;;16.87;42.67;101560.80;1703887;82;21102;-49
2022/10/20 01:33:31;;;;;;;5.35;2.00;;;;;;;16.79;43.03;101564.16;1700327;82;21478;-49
2022/10/20 01:36:20;;;;;;;4.78;2.17;;;;;;;16.75;43.04;101569.11;1701111;82;21054;-54
2022/10/20 01:39:01;;;;;;;4.28;2.05;;;;;;;16.73;42.92;101559.95;1638236;86;21088;-52
2022/10/20 01:41:33;;;;;;;7.05;2.12;;;;;;;16.69;42.57;101566.70;1643415;87;21052;-51
2022/10/20 01:44:02;;;;;;;4.72;1.90;;;;;;;16.63;42.83;101556.40;1649992;87;21092;-54
2022/10/20 01:46:29;;;;;;;3.95;1.90;;;;;;;16.57;43.30;101551.35;1650044;87;21027;-50
2022/10/20 01:48:56;;;;;;;5.60;1.80;;;;;;;16.53;43.72;101558.91;1649962;86;21130;-50
2022/10/20 01:51:22;;;;;;;3.95;2.10;;;;;;;16.48;43.87;101558.18;1649904;87;21052;-52
2022/10/20 01:53:50;;;;;;;3.95;1.95;;;;;;;16.45;44.01;101565.70;1649414;86;21099;-51
2022/10/20 01:56:39;;;;;;;3.08;1.80;;;;;;;16.42;44.05;101582.89;1649833;87;21135;-52
2022/10/20 01:59:19;;;;;;;4.58;2.12;;;;;;;16.36;44.24;101578.29;1646150;86;21103;-54
2022/10/20 02:02:01;;;;;;;4.30;2.20;;;;;;;16.30;44.62;101574.94;1650280;87;21083;-53
2022/10/20 02:04:51;;;;;;;3.83;2.08;;;;;;;16.26;44.82;101581.20;1650500;87;21488;-50
2022/10/20 02:07:23;;;;;;;3.12;2.17;;;;;;;16.19;45.19;101595.45;1566576;91;21648;-52
2022/10/20 02:09:55;;;;;;;3.77;2.15;;;;;;;16.13;45.53;101598.27;1515277;93;21161;-53
2022/10/20 02:12:27;;;;;;;4.30;2.25;;;;;;;16.08;45.83;101601.48;1519373;93;21683;-49
2022/10/20 02:14:54;;;;;;;2.30;1.55;;;;;;;16.04;45.88;101606.42;1545115;91;21096;-50
2022/10/20 02:17:21;;;;;;;4.70;2.50;;;;;;;16.01;46.06;101602.55;1568477;91;21640;-54
2022/10/20 02:19:50;;;;;;;4.03;2.00;;;;;;;15.98;46.22;101614.48;1552710;92;21139;-51
2022/10/20 02:22:16;;;;;;;4.78;1.87;;;;;;;15.96;46.33;101601.86;1560781;91;21497;-50
2022/10/20 02:24:44;;;;;;;2.67;2.00;;;;;;;15.93;46.46;101591.44;1552655;92;21068;-53
2022/10/20 02:27:15;;;;;;;2.58;1.60;;;;;;;15.88;46.79;101601.23;1560692;91;21148;-50
2022/10/20 02:29:50;;;;;;;3.10;1.77;;;;;;;15.83;47.28;101614.93;1528154;92;21071;-51
2022/10/20 02:32:17;;;;;;;4.08;1.87;;;;;;;15.79;47.38;101621.17;1547097;92;21127;-51
2022/10/20 02:34:44;;;;;;;3.98;1.80;;;;;;;15.78;47.49;101635.22;1571337;91;21096;-53
2022/10/20 02:37:10;;;;;;;3.30;1.70;;;;;;;15.74;47.36;101632.72;1550575;91;21707;-50
2022/10/20 02:39:37;;;;;;;4.15;1.90;;;;;;;15.70;47.38;101639.83;1552357;92;21102;-51
2022/10/20 02:42:04;;;;;;;4.42;1.85;;;;;;;15.68;47.63;101637.70;1563346;91;21156;-50
2022/10/20 02:44:31;;;;;;;4.35;1.67;;;;;;;15.66;47.56;101639.48;1553021;91;21094;-50
2022/10/20 02:46:58;;;;;;;2.58;1.60;;;;;;;15.65;47.71;101651.34;1545865;92;21094;-51
2022/10/20 02:49:26;;;;;;;1.65;1.25;;;;;;;15.62;47.70;101657.52;1541387;92;21083;-55
2022/10/20 02:51:53;;;;;;;2.58;1.47;;;;;;;15.62;47.74;101657.52;1536629;92;21145;-55
2022/10/20 02:54:20;;;;;;;2.35;1.42;;;;;;;15.62;47.65;101660.14;1578779;90;21503;-54
2022/10/20 02:56:46;;;;;;;4.00;1.50;;;;;;;15.61;47.58;101670.69;1578988;90;21121;-55
2022/10/20 02:59:15;;;;;;;3.67;1.50;;;;;;;15.60;47.81;101667.20;1576191;89;21618;-52
2022/10/20 03:01:43;;;;;;;4.37;1.42;;;;;;;15.58;47.89;101665.07;1576061;90;21054;-51
2022/10/20 03:04:09;;;;;;;1.80;1.25;;;;;;;15.55;48.12;101676.98;1575787;90;21061;-49
2022/10/20 03:06:36;;;;;;;1.72;1.40;;;;;;;15.54;47.99;101683.11;1560601;90;21082;-50
2022/10/20 03:09:03;;;;;;;3.62;1.45;;;;;;;15.53;48.20;101684.03;1544750;92;21608;-51
2022/10/20 03:11:30;;;;;;;1.98;1.35;;;;;;;15.53;48.14;101681.41;1572546;88;21066;-51
2022/10/20 03:13:57;;;;;;;3.87;1.40;;;;;;;15.54;48.27;101685.73;1613052;88;21642;-51
2022/10/20 03:16:25;;;;;;;1.98;1.37;;;;;;;15.55;48.08;101687.47;1613593;88;21065;-50
2022/10/20 03:18:53;;;;;;;2.20;1.45;;;;;;;15.55;48.05;101697.09;1615050;88;21530;-52
2022/10/20 03:21:20;;;;;;;2.05;1.40;;;;;;;15.53;48.10;101687.97;1613638;88;21133;-55
2022/10/20 03:23:47;;;;;;;2.33;1.30;;;;;;;15.54;47.87;101696.23;1612870;88;21049;-50
2022/10/20 03:26:14;;;;;;;1.52;1.20;;;;;;;15.53;47.92;101691.03;1613216;87;21042;-50
2022/10/20 03:28:41;;;;;;;1.85;1.30;;;;;;;15.52;47.94;101688.86;1621749;88;21589;-55
2022/10/20 03:31:07;;;;;;;2.33;1.52;;;;;;;15.50;47.96;101681.48;1625602;88;21058;-52
2022/10/20 03:33:34;;;;;;;4.00;1.27;;;;;;;15.49;48.00;101691.58;1658331;85;21100;-49
2022/10/20 03:36:01;;;;;;;2.05;1.25;;;;;;;15.48;47.94;101686.38;1666756;85;21069;-51
2022/10/20 03:38:28;;;;;;;1.90;1.20;;;;;;;15.46;48.16;101694.27;1667108;85;21546;-51
2022/10/20 03:40:55;;;;;;;1.65;1.20;;;;;;;15.44;48.02;101692.14;1667951;85;21614;-50
2022/10/20 03:43:21;;;;;;;1.60;1.22;;;;;;;15.42;48.17;101704.40;1669185;85;21050;-50
2022/10/20 03:45:48;;;;;;;2.95;1.10;;;;;;;15.41;48.39;101706.62;1669670;85;21545;-53
2022/10/20 03:48:16;;;;;;;1.80;1.40;;;;;;;15.42;48.49;101704.40;1667552;85;21153;-50
2022/10/20 03:50:43;;;;;;;1.27;1.17;;;;;;;15.39;48.31;101711.05;1667763;85;21070;-52
2022/10/20 03:53:12;;;;;;;3.58;1.20;;;;;;;15.38;48.68;101705.38;1668911;85;20983;-52
2022/10/20 03:55:38;;;;;;;1.15;1.00;;;;;;;15.37;48.57;101711.55;1669832;85;21046;-52
2022/10/20 03:58:05;;;;;;;4.28;1.00;;;;;;;15.36;48.74;101719.86;1669633;85;21026;-54
2022/10/20 04:00:32;;;;;;;2.95;1.40;;;;;;;15.37;47.75;101718.10;1667794;85;21082;-56
2022/10/20 04:02:58;;;;;;;1.77;1.02;;;;;;;15.34;48.17;101718.17;1666496;85;21089;-51
2022/10/20 04:05:25;;;;;;;2.50;1.10;;;;;;;15.32;48.66;101723.90;1658772;85;21105;-50
2022/10/20 04:07:51;;;;;;;4.33;1.40;;;;;;;15.28;48.46;101722.26;1668920;85;21090;-50
2022/10/20 04:10:18;;;;;;;2.12;0.90;;;;;;;15.24;47.72;101731.11;1669741;85;21062;-51
2022/10/20 04:12:45;;;;;;;1.47;0.90;;;;;;;15.19;47.21;101727.73;1671766;85;21549;-52
2022/10/20 04:15:11;;;;;;;1.42;0.78;;;;;;;15.14;46.13;101736.17;1656588;84;21019;-52
2022/10/20 04:17:39;;;;;;;3.15;1.10;;;;;;;15.09;45.30;101726.23;1656293;84;21515;-55
2022/10/20 04:20:08;;;;;;;1.52;1.10;;;;;;;15.02;44.80;101716.82;1660139;85;21045;-50
2022/10/20 04:22:36;;;;;;;2.42;1.10;;;;;;;14.98;45.54;101737.45;1658885;84;21071;-54
2022/10/20 04:25:04;;;;;;;13.93;1.42;;;;;;;14.91;45.41;101726.70;1656937;84;21047;-50
2022/10/20 04:27:31;;;;;;;3.12;0.80;;;;;;;14.85;43.87;101733.39;1668783;84;21010;-50
2022/10/20 04:29:58;;;;;;;3.05;0.78;;;;;;;14.78;42.57;101740.97;1656051;84;21012;-51
2022/10/20 04:32:24;;;;;;;1.80;0.60;;;;;;;14.72;42.11;101733.26;1668980;84;21061;-50
2022/10/20 04:34:51;;;;;;;12.73;1.12;;;;;;;14.66;41.91;101757.41;1657105;84;21114;-50
2022/10/20 04:37:18;;;;;;;1.60;0.70;;;;;;;14.60;41.09;101753.62;1659634;84;21121;-52
2022/10/20 04:39:46;;;;;;;1.72;0.60;;;;;;;14.55;42.13;101755.46;1659554;84;21087;-50
2022/10/20 04:42:12;;;;;;;16.85;1.52;;;;;;;14.51;42.37;101766.90;1657630;84;21042;-51
2022/10/20 04:44:39;;;;;;;7.05;1.10;;;;;;;14.48;41.06;101769.61;1656900;86;21019;-52
2022/10/20 04:47:06;;;;;;;1.45;0.62;;;;;;;14.43;40.38;101771.45;1657346;84;21122;-50
2022/10/20 04:49:33;;;;;;;2.10;0.50;;;;;;;14.37;41.31;101793.84;1656863;84;21543;-50
2022/10/20 04:51:59;;;;;;;1.67;0.47;;;;;;;14.35;41.72;101777.30;1656644;84;21103;-50
2022/10/20 04:54:26;;;;;;;2.05;0.70;;;;;;;14.32;41.34;101796.98;1656655;84;21062;-50
2022/10/20 04:56:53;;;;;;;1.65;0.70;;;;;;;14.29;41.42;101784.41;1656679;84;21491;-51
2022/10/20 04:59:21;;;;;;;3.25;0.72;;;;;;;14.28;42.40;101790.09;1653658;84;21078;-50
2022/10/20 05:01:48;;;;;;;3.58;0.78;;;;;;;14.28;42.16;101782.23;1659325;84;21114;-51
2022/10/20 05:04:20;;;;;;;2.10;0.75;;;;;;;14.27;41.66;101787.03;1658334;84;21119;-50
2022/10/20 05:06:45;;;;;;;2.10;0.57;;;;;;;14.23;41.20;101798.91;1655727;85;21069;-52
2022/10/20 05:09:14;;;;;;;2.55;0.57;;;;;;;14.15;40.45;101805.61;1657399;84;21583;-50
2022/10/20 05:11:41;;;;;;;2.47;0.75;;;;;;;14.11;39.90;101815.73;1656795;84;21067;-50
2022/10/20 05:14:09;;;;;;;0.80;0.50;;;;;;;14.03;40.24;101815.02;1656238;84;20992;-52
2022/10/20 05:16:35;;;;;;;3.15;0.93;;;;;;;13.96;39.80;101834.33;1656643;84;21549;-49
2022/10/20 05:19:03;;;;;;;2.90;0.88;;;;;;;13.91;39.45;101836.14;1651770;86;21084;-53
2022/10/20 05:21:30;;;;;;;5.47;0.78;;;;;;;13.86;39.23;101857.63;1653970;84;21015;-52
2022/10/20 05:23:59;;;;;;;3.70;0.90;;;;;;;13.81;39.06;101866.86;1655912;84;21047;-50
2022/10/20 05:26:26;;;;;;;2.83;0.65;;;;;;;13.77;39.31;101847.31;1657325;84;21063;-49
2022/10/20 05:28:53;;;;;;;1.35;0.55;;;;;;;13.72;39.35;101872.70;1657002;84;21161;-53
2022/10/20 05:31:21;;;;;;;1.22;0.60;;;;;;;13.68;40.05;101866.63;1653812;84;21098;-49
2022/10/20 05:33:51;;;;;;;3.30;0.88;;;;;;;13.65;40.65;101876.30;1659649;84;21008;-51
2022/10/20 05:36:21;;;;;;;2.62;0.72;;;;;;;13.62;40.87;101876.36;1658565;84;21067;-51
2022/10/20 05:38:48;;;;;;;1.10;0.53;;;;;;;13.61;41.35;101887.27;1656534;84;21027;-50
2022/10/20 05:41:17;;;;;;;5.42;0.70;;;;;;;13.60;40.83;101892.52;1655566;84;21007;-51
2022/10/20 05:43:52;;;;;;;4.30;0.60;;;;;;;13.59;41.36;101893.39;1658834;86;21043;-53
2022/10/20 05:46:19;;;;;;;3.45;0.80;;;;;;;13.59;40.54;101896.01;1659099;86;21104;-49
2022/10/20 05:48:46;;;;;;;2.15;0.47;;;;;;;13.59;40.43;101890.78;1659491;84;21114;-50
2022/10/20 05:51:18;;;;;;;3.80;0.55;;;;;;;13.57;40.79;101906.94;1658250;84;21074;-51
2022/10/20 05:53:45;;;;;;;7.20;0.70;;;;;;;13.58;40.54;101902.14;1656691;84;21066;-50
2022/10/20 05:56:16;;;;;;;0.62;0.30;;;;;;;13.61;40.28;101915.16;1656465;84;21138;-50
2022/10/20 05:58:43;;;;;;;2.40;0.55;;;;;;;13.63;40.53;101913.38;1656854;84;21543;-52
2022/10/20 06:01:18;;;;;;;1.60;0.50;;;;;;;13.61;39.54;101943.92;1656474;84;21047;-50
2022/10/20 06:03:57;;;;;;;2.35;0.40;;;;;;;13.60;40.00;101926.52;1656692;84;21023;-50
2022/10/20 06:06:27;;;;;;;1.98;0.68;;;;;;;13.58;40.43;101928.30;1600675;89;21067;-50
2022/10/20 06:08:54;;;;;;;3.12;0.62;;;;;;;13.56;40.53;101928.77;1601342;88;21059;-51
2022/10/20 06:11:21;;;;;;;1.37;0.50;;;;;;;13.55;40.75;101923.10;1615818;88;21029;-50
2022/10/20 06:13:48;;;;;;;1.80;0.53;;;;;;;13.55;41.78;101936.17;1614546;89;21097;-51
2022/10/20 06:16:22;;;;;;;1.02;0.70;;;;;;;13.56;40.89;101932.69;1614131;89;21135;-49
2022/10/20 06:18:50;;;;;;;1.15;0.62;;;;;;;13.58;41.74;101942.68;1601044;90;21079;-54
2022/10/20 06:21:19;;;;;;;1.15;0.90;;;;;;;13.60;40.87;101944.83;1601472;89;21583;-50
2022/10/20 06:23:46;;;;;;;3.22;1.00;;;;;;;13.60;40.58;101950.90;1601484;89;21115;-49
2022/10/20 06:26:22;;;;;;;1.37;0.70;;;;;;;13.59;39.89;101957.47;1601446;89;21146;-51
2022/10/20 06:28:55;;;;;;;1.05;0.70;;;;;;;13.60;40.59;101952.67;1632619;88;22579;-52
2022/10/20 06:31:25;;;;;;;1.07;0.53;;;;;;;13.62;40.61;101963.98;1632521;88;21594;-49
2022/10/20 06:33:53;;;;;;;1.57;0.85;;;;;;;13.66;40.56;101957.81;1632441;87;21060;-52
2022/10/20 06:36:20;;;;;;;1.90;0.60;;;;;;;13.68;40.32;101964.72;1632938;86;21044;-53
2022/10/20 06:38:57;;;;;;;3.00;0.80;;;;;;;13.72;39.87;101969.02;1632850;88;21548;-51
2022/10/20 06:41:24;;;;;;;4.22;0.80;;;;;;;13.73;39.35;101978.61;1631751;88;21105;-52
2022/10/20 06:43:57;;;;;;;1.72;0.70;;;;;;;13.74;39.27;101969.89;1678168;83;21034;-50
2022/10/20 06:46:21;;;;;;;2.10;1.10;;;;;;;13.75;39.06;101979.88;1698599;82;21034;-51
2022/10/20 06:48:48;;;;;;;2.05;0.78;;;;;;;13.76;38.81;101982.94;1718988;82;21049;-51
2022/10/20 06:51:23;;;;;;;3.00;0.90;;;;;;;13.75;39.04;101985.11;1707662;82;21027;-50
2022/10/20 06:53:51;;;;;;;5.45;2.10;;;;;;;13.75;39.13;101986.42;1707890;82;21455;-50
2022/10/20 06:56:23;;;;;;;2.22;0.70;;;;;;;13.74;39.74;101989.51;1718459;82;21100;-50
2022/10/20 06:58:53;;;;;;;1.67;0.80;;;;;;;13.74;38.70;101995.17;1725929;82;21003;-51
2022/10/20 07:01:24;;;;;;;1.77;0.60;;;;;;;13.69;37.82;101992.62;1712048;82;21030;-50
2022/10/20 07:03:56;;;;;;;1.57;0.45;;;;;;;13.64;37.93;102011.89;1641900;86;21058;-51
2022/10/20 07:06:25;;;;;;;;;;;;;;;13.59;38.32;102008.47;1680445;84;21016;-52
2022/10/20 07:08:52;;;;;;;1.87;0.40;;;;;;;13.54;38.83;102006.37;1688672;84;20169;-50
2022/10/20 07:11:22;;;;;;;3.80;0.40;;;;;;;13.54;38.59;102002.45;1678626;84;21020;-51
2022/10/20 07:13:51;;;;;;;0.57;0.30;;;;;;;13.52;37.26;102012.04;1659652;84;21070;-51
2022/10/20 07:16:21;;;;;;;0.72;0.40;;;;;;;13.49;37.20;102000.33;1625664;87;21670;-51
2022/10/20 07:18:47;;;;;;;0.53;0.42;;;;;;;13.47;37.38;102003.41;1626463;88;21034;-52
2022/10/20 07:21:18;;;;;;;1.07;0.62;;;;;;;13.47;38.15;101998.19;1619146;87;21640;-49
2022/10/20 07:23:46;;;;;;;1.55;0.50;;;;;;;13.47;37.12;102006.03;1664105;84;21046;-50
2022/10/20 07:26:17;;;;;;;3.55;0.68;;;;;;;13.48;37.27;102012.53;1655172;85;21079;-50
2022/10/20 07:28:46;;;;;;;1.45;0.50;;;;;;;13.48;36.91;102002.51;1571827;91;21102;-50
2022/10/20 07:31:21;;;;;;;1.32;0.40;;;;;;;13.45;37.35;102007.80;1608439;89;21005;-51
2022/10/20 07:33:48;;;;;;;0.80;0.65;;;;;;;13.43;37.25;102006.52;1605297;89;21037;-50
2022/10/20 07:36:22;;;;;;;2.72;0.60;;;;;;;13.42;37.37;101999.55;1597974;89;21064;-49
2022/10/20 07:38:54;;;;;;;2.55;0.70;;;;;;;13.42;37.40;102007.39;1607600;89;21599;-50
2022/10/20 07:41:21;;;;;;;2.33;0.60;;;;;;;13.43;37.43;102004.34;1608656;89;21057;-51
2022/10/20 07:43:50;;;;;;;1.12;0.40;;;;;;;13.40;37.47;102003.93;1604251;89;21494;-49
2022/10/20 07:46:18;;;;;;;1.45;0.50;;;;;;;13.40;38.38;102001.75;1599610;89;21112;-51
2022/10/20 07:48:45;;;;;;;3.65;0.72;;;;;;;13.42;38.38;102012.62;1605206;89;21061;-49
2022/10/20 07:51:25;;;;;;;0.90;0.53;;;;;;;13.42;37.51;102011.31;1595439;89;21087;-53
2022/10/20 07:53:57;;;;;;;1.85;0.40;;;;;;;13.41;38.47;102023.11;1604901;89;21045;-50
2022/10/20 07:56:27;;;;;;;3.42;0.57;;;;;;;13.42;38.08;102020.89;1599013;87;21075;-52
2022/10/20 07:58:54;;;;;;;3.65;0.50;;;;;;;13.41;38.02;102016.57;1603866;89;21046;-50
2022/10/20 08:01:20;;;;;;;2.70;0.37;;;;;;;13.43;38.75;102018.72;1607576;88;21102;-49
2022/10/20 08:03:47;;;;;;;0.85;0.47;;;;;;;13.46;38.18;102009.52;1618994;88;21058;-52
2022/10/20 08:06:13;;;;;;;1.95;0.40;;;;;;;13.48;37.90;102021.69;1603596;88;21070;-50
2022/10/20 08:08:40;;;;;;;1.32;0.50;;;;;;;13.49;37.43;102020.81;1618633;88;21580;-51
2022/10/20 08:11:08;;;;;;;2.52;0.70;;;;;;;13.49;37.39;102019.95;1612629;88;21057;-49
2022/10/20 08:13:34;;;;;;;1.42;0.50;;;;;;;13.49;37.73;102026.05;1635877;86;21057;-50
2022/10/20 08:16:01;;;;;;;3.33;0.55;;;;;;;13.50;37.29;102019.05;1651202;86;21062;-49
2022/10/20 08:18:28;;;;;;;4.45;1.47;;;;;;;13.52;37.81;102019.88;1649985;86;21530;-50
2022/10/20 08:21:16;;;;;;;2.17;0.40;;;;;;;13.53;38.01;102014.66;1648883;86;21023;-51
2022/10/20 08:23:45;;;;;;;3.85;0.47;;;;;;;13.55;38.03;102019.86;1635348;86;21051;-49
2022/10/20 08:26:12;;;;;;;1.77;0.50;;;;;;;13.59;37.64;102024.16;1629643;86;21584;-50
2022/10/20 08:28:40;;;;;;;2.85;0.47;;;;;;;13.61;37.49;102021.95;1646034;86;21081;-49
2022/10/20 08:31:08;;;;;;;1.17;0.65;;;;;;;13.66;37.29;102028.43;1656164;84;21638;-49
2022/10/20 08:33:35;;;;;;;1.15;0.70;;;;;;;13.68;37.62;102018.81;1708834;84;21073;-49
2022/10/20 08:36:04;;;;;;;2.17;0.95;;;;;;;13.70;37.57;102025.72;1694412;83;21493;-49
2022/10/20 08:38:31;;;;;;;1.87;0.50;;;;;;;13.73;37.27;102016.97;1706043;84;21029;-49
2022/10/20 08:40:59;;;;;;;1.00;0.60;;;;;;;13.79;38.59;102024.73;1703101;84;21050;-51
2022/10/20 08:43:26;;;;;;;2.12;0.50;;;;;;;13.86;38.00;102027.25;1705865;84;21530;-49
2022/10/20 08:45:53;;;;;;;1.50;0.60;;;;;;;13.87;36.79;102029.40;1703149;84;21034;-49
2022/10/20 08:48:24;;;;;;;3.37;0.80;;;;;;;13.84;36.69;102036.00;1690416;83;21026;-50
2022/10/20 08:50:52;;;;;;;3.15;0.60;;;;;;;13.81;36.65;102041.27;1681949;85;21026;-50
2022/10/20 08:53:22;;;;;;;1.50;0.30;;;;;;;13.83;36.27;102031.64;1700791;83;21032;-53
2022/10/20 08:55:49;;;;;;;4.12;1.07;;;;;;;13.84;36.60;102034.27;1695572;83;21023;-49
2022/10/20 08:58:19;;;;;;;1.80;0.75;;;;;;;13.87;37.11;102028.09;1710021;83;21051;-49
2022/10/20 09:00:50;;;;;;;2.52;0.60;;;;;;;13.94;37.27;102042.83;1698711;83;21542;-49
2022/10/20 09:03:23;;;;;;;1.50;0.55;;;;;;;13.99;36.29;102034.91;1684943;83;21077;-49
2022/10/20 09:06:04;;;;;;;0.82;0.65;;;;;;;14.02;36.28;102045.31;1710069;83;21077;-51
2022/10/20 09:08:31;;;;;;;4.30;0.72;;;;;;;14.05;35.97;102036.13;1636974;86;21070;-50
2022/10/20 09:11:01;;;;;;;0.50;0.40;;;;;;;14.08;36.02;102035.62;1614303;86;21048;-51
2022/10/20 09:13:29;;;;;;;3.33;0.50;;;;;;;14.09;35.99;102037.80;1639557;86;21108;-52
2022/10/20 09:16:27;;;;;;;1.55;0.65;;;;;;;14.13;36.03;102039.05;1638544;86;21078;-50
2022/10/20 09:18:57;;;;;;;0.50;0.40;;;;;;;14.14;35.30;102030.28;1631684;87;21592;-51
2022/10/20 09:21:24;;;;;;;3.33;0.60;;;;;;;14.15;34.86;102039.88;1634483;86;21069;-50
2022/10/20 09:23:54;;;;;;;1.62;0.60;;;;;;;14.17;34.65;102043.34;1637858;87;21203;-52
2022/10/20 09:26:35;;;;;;;4.33;0.78;;;;;;;14.19;34.73;102036.76;1637927;87;21063;-51
2022/10/20 09:29:06;;;;;;;2.22;0.40;;;;;;;14.21;34.79;102045.02;1546659;92;21114;-54
2022/10/20 09:31:38;;;;;;;0.98;0.50;;;;;;;14.24;34.66;102042.33;1548244;92;21923;-51
2022/10/20 09:34:30;;;;;;;0.55;0.42;;;;;;;14.22;34.49;102043.27;1551053;92;21117;-50
2022/10/20 09:37:10;;;;;;;0.90;0.55;;;;;;;14.18;34.90;102037.20;1523048;94;21090;-50
2022/10/20 09:39:52;;;;;;;4.33;0.60;;;;;;;14.17;34.77;102038.10;1476068;96;21138;-49
2022/10/20 09:42:29;;;;;;;3.10;0.40;;;;;;;14.17;34.14;102045.95;1447884;98;21085;-49
2022/10/20 09:44:58;;;;;;;0.85;0.70;;;;;;;14.18;34.41;102036.36;1423174;100;21181;-49
2022/10/20 09:47:26;;;;;;;2.27;0.60;;;;;;;14.16;35.13;102033.73;1444702;97;21237;-51
2022/10/20 09:49:57;;;;;;;0.60;0.53;;;;;;;14.17;35.34;102040.72;1446070;98;21139;-50
2022/10/20 09:52:29;;;;;;;1.25;0.37;;;;;;;14.16;35.38;102038.98;1405404;101;21165;-52
2022/10/20 09:55:01;;;;;;;1.50;0.50;;;;;;;14.17;35.61;102040.72;1440986;99;21188;-50
2022/10/20 09:57:27;;;;;;;;;;;;;;;14.16;35.59;102045.52;1440859;98;21160;-51
2022/10/20 09:59:54;;;;;;;0.53;0.40;;;;;;;14.13;34.71;102039.05;1441150;99;20163;-53
2022/10/20 10:02:26;;;;;;;1.95;0.72;;;;;;;14.09;35.06;102041.29;1442810;99;21131;-49
2022/10/20 10:04:53;;;;;;;3.33;0.45;;;;;;;14.08;35.00;102045.22;1442904;99;21103;-50
2022/10/20 10:07:29;;;;;;;2.20;0.57;;;;;;;14.12;35.06;102047.77;1485420;95;21136;-51
2022/10/20 10:10:08;;;;;;;0.85;0.45;;;;;;;14.21;34.53;102054.18;1490232;95;21101;-51
2022/10/20 10:12:35;;;;;;;0.70;0.40;;;;;;;14.30;34.12;102052.73;1488115;95;21133;-51
2022/10/20 10:15:07;;;;;;;7.50;0.72;;;;;;;14.38;33.70;102047.39;1474489;96;21137;-51
2022/10/20 10:17:40;;;;;;;3.00;0.70;;;;;;;14.45;33.70;102052.48;1492961;96;21574;-49
2022/10/20 10:22:44;;;;;;;5.72;0.93;;;;;;;14.54;33.74;102060.20;1456102;98;21669;-48
2022/10/20 10:25:26;;;;;;;1.32;0.42;;;;;;;14.54;32.80;102057.58;1452509;97;21171;-49
2022/10/20 10:28:07;;;;;;;1.95;0.55;;;;;;;14.56;32.82;102046.63;1452591;98;21110;-49
2022/10/20 10:30:37;;;;;;;2.55;0.42;;;;;;;14.58;32.05;102048.78;1453487;98;21110;-50
2022/10/20 10:33:25;;;;;;;5.70;0.40;;;;;;;14.62;32.50;102042.59;1441655;98;21144;-50
2022/10/20 10:35:52;;;;;;;2.40;0.45;;;;;;;14.69;32.67;102055.98;1435489;99;21166;-48
2022/10/20 10:38:19;;;;;;;3.65;0.30;;;;;;;14.80;32.56;102045.74;1430525;99;21155;-49
2022/10/20 10:41:12;;;;;;;2.15;0.50;;;;;;;14.89;32.41;102042.97;1444208;99;21114;-49
2022/10/20 10:44:09;;;;;;;1.60;0.80;;;;;;;15.00;31.85;102047.09;1396149;102;21108;-48
2022/10/20 10:46:52;;;;;;;2.12;0.50;;;;;;;15.11;32.58;102038.58;1335826;106;21672;-51
2022/10/20 10:49:45;;;;;;;2.37;0.40;;;;;;;15.16;32.55;102038.06;1362459;104;21162;-49
2022/10/20 10:52:40;;;;;;;1.62;1.07;;;;;;;15.19;32.57;102037.98;1372910;104;21196;-50
2022/10/20 10:55:17;;;;;;;1.07;0.50;;;;;;;15.21;33.03;102048.42;1364499;104;21166;-52
2022/10/20 10:58:07;;;;;;;1.52;0.60;;;;;;;15.27;32.28;102043.09;1332916;107;21181;-50
2022/10/20 11:00:55;;;;;;;0.47;0.40;;;;;;;15.34;33.05;102031.55;1352169;105;21155;-53
2022/10/20 11:03:54;;;;;;;2.12;0.45;;;;;;;15.40;32.77;102043.23;1325453;107;21658;-49
2022/10/20 11:06:27;;;;;;;3.98;0.60;;;;;;;15.49;31.78;102041.77;1335042;107;21238;-51
2022/10/20 11:09:18;;;;;;;1.00;0.60;;;;;;;15.54;31.74;102024.14;1333536;107;21738;-51
2022/10/20 11:12:19;;;;;;;2.58;0.50;;;;;;;15.57;31.60;102031.97;1335074;107;21165;-50
2022/10/20 11:15:26;;;;;;;1.47;0.70;;;;;;;15.56;32.39;102031.53;1356162;105;21158;-50
2022/10/20 11:18:10;;;;;;;3.87;0.50;;;;;;;15.56;32.00;102022.35;1356560;106;21162;-50
2022/10/20 11:21:02;;;;;;;2.00;0.70;;;;;;;15.58;32.51;102025.80;1388967;100;21104;-50
2022/10/20 11:24:13;;;;;;;3.85;1.00;;;;;;;15.57;32.10;102018.84;1449626;98;21115;-52
2022/10/20 11:26:50;;;;;;;1.92;0.60;;;;;;;15.63;31.85;102026.58;1448204;98;21611;-49
2022/10/20 11:29:25;;;;;;;0.68;0.40;;;;;;;15.63;31.68;102016.08;1477192;96;21144;-50
2022/10/20 11:31:57;;;;;;;1.90;0.55;;;;;;;15.60;31.69;102013.52;1494172;96;21109;-49
2022/10/20 11:34:31;;;;;;;0.80;0.50;;;;;;;15.56;32.11;102002.67;1502052;94;21710;-50
2022/10/20 11:37:16;;;;;;;1.98;0.60;;;;;;;15.53;33.09;102008.45;1458785;97;21110;-49
2022/10/20 11:40:08;;;;;;;0.93;0.40;;;;;;;15.50;33.33;102004.13;1460588;97;21098;-51
2022/10/20 11:42:57;;;;;;;1.98;0.40;;;;;;;15.52;33.09;102014.14;1450905;97;21095;-52
2022/10/20 11:45:35;;;;;;;1.05;0.50;;;;;;;15.54;32.72;102007.09;1453042;97;21152;-50
2022/10/20 11:48:39;;;;;;;3.83;0.70;;;;;;;15.54;32.61;102005.78;1422703;100;21136;-49